sensor_id;sensor_type;location;lat;lon;timestamp;temperature;humidity
5344;DHT22;2694;48.954;8.928;2023-03-26T00:01:20;6.90;99.90
5344;DHT22;2694;48.954;8.928;2023-03-26T00:03:49;6.80;99.90
5344;DHT22;2694;48.954;8.928;2023-03-26T00:06:20;6.90;99.90
5344;DHT22;2694;48.954;8.928;2023-03-26T00:08:48;7.00;99.90
5344;DHT22;2694;48.954;8.928;2023-03-26T00:11:17;7.00;99.90
5344;DHT22;2694;48.954;8.928;2023-03-26T00:13:45;6.90;99.90
5344;DHT22;2694;48.954;8.928;2023-03-26T00:16:15;6.80;99.90
5344;DHT22;2694;48.954;8.928;2023-03-26T00:18:43;6.70;99.90
5344;DHT22;2694;48.954;8.928;2023-03-26T00:21:12;6.50;99.90
5344;DHT22;2694;48.954;8.928;2023-03-26T00:23:39;6.40;99.90
5344;DHT22;2694;48.954;8.928;2023-03-26T00:26:07;6.30;99.90
5344;DHT22;2694;48.954;8.928;2023-03-26T00:28:35;6.40;99.90
5344;DHT22;2694;48.954;8.928;2023-03-26T00:31:04;6.50;99.90
5344;DHT22;2694;48.954;8.928;2023-03-26T00:33:33;6.50;99.90
5344;DHT22;2694;48.954;8.928;2023-03-26T00:36:04;6.60;99.90
5344;DHT22;2694;48.954;8.928;2023-03-26T00:38:34;6.70;99.90
5344;DHT22;2694;48.954;8.928;2023-03-26T00:41:05;6.80;99.90
5344;DHT22;2694;48.954;8.928;2023-03-26T00:43:34;6.70;99.90
5344;DHT22;2694;48.954;8.928;2023-03-26T00:46:01;6.50;99.90
5344;DHT22;2694;48.954;8.928;2023-03-26T00:48:29;6.30;99.90
5344;DHT22;2694;48.954;8.928;2023-03-26T00:50:57;6.20;99.90
5344;DHT22;2694;48.954;8.928;2023-03-26T00:53:24;6.20;99.90
5344;DHT22;2694;48.954;8.928;2023-03-26T00:55:51;6.20;99.90
5344;DHT22;2694;48.954;8.928;2023-03-26T00:58:18;6.20;99.90
5344;DHT22;2694;48.954;8.928;2023-03-26T01:00:49;6.20;99.90
5344;DHT22;2694;48.954;8.928;2023-03-26T01:03:17;6.10;99.90
5344;DHT22;2694;48.954;8.928;2023-03-26T01:05:47;6.00;99.90
5344;DHT22;2694;48.954;8.928;2023-03-26T01:08:23;5.90;99.90
5344;DHT22;2694;48.954;8.928;2023-03-26T01:10:51;5.90;99.90
5344;DHT22;2694;48.954;8.928;2023-03-26T01:13:28;6.00;99.90
5344;DHT22;2694;48.954;8.928;2023-03-26T01:15:56;6.00;99.90
5344;DHT22;2694;48.954;8.928;2023-03-26T01:18:29;6.10;99.90
5344;DHT22;2694;48.954;8.928;2023-03-26T01:20:59;6.10;99.90
5344;DHT22;2694;48.954;8.928;2023-03-26T01:23:42;6.00;99.90
5344;DHT22;2694;48.954;8.928;2023-03-26T01:26:22;5.80;99.90
5344;DHT22;2694;48.954;8.928;2023-03-26T01:28:53;5.70;99.90
5344;DHT22;2694;48.954;8.928;2023-03-26T01:31:26;5.70;99.90
5344;DHT22;2694;48.954;8.928;2023-03-26T01:33:59;5.60;99.90
5344;DHT22;2694;48.954;8.928;2023-03-26T01:36:33;5.50;99.90
5344;DHT22;2694;48.954;8.928;2023-03-26T01:39:07;5.50;99.90
5344;DHT22;2694;48.954;8.928;2023-03-26T01:41:41;5.60;99.90
5344;DHT22;2694;48.954;8.928;2023-03-26T01:44:14;5.70;99.90
5344;DHT22;2694;48.954;8.928;2023-03-26T01:46:42;5.80;99.90
5344;DHT22;2694;48.954;8.928;2023-03-26T01:49:10;5.80;99.90
5344;DHT22;2694;48.954;8.928;2023-03-26T01:51:39;5.70;99.90
5344;DHT22;2694;48.954;8.928;2023-03-26T01:54:08;5.80;99.90
5344;DHT22;2694;48.954;8.928;2023-03-26T01:56:45;5.80;99.90
5344;DHT22;2694;48.954;8.928;2023-03-26T01:59:24;5.90;99.90
5344;DHT22;2694;48.954;8.928;2023-03-26T02:01:59;5.70;99.90
5344;DHT22;2694;48.954;8.928;2023-03-26T02:04:32;5.80;99.90
5344;DHT22;2694;48.954;8.928;2023-03-26T02:07:04;5.80;99.90
5344;DHT22;2694;48.954;8.928;2023-03-26T02:09:38;5.70;99.90
5344;DHT22;2694;48.954;8.928;2023-03-26T02:12:08;5.80;99.90
5344;DHT22;2694;48.954;8.928;2023-03-26T02:14:36;5.70;99.90
5344;DHT22;2694;48.954;8.928;2023-03-26T02:17:02;5.60;99.90
5344;DHT22;2694;48.954;8.928;2023-03-26T02:19:30;5.60;99.90
5344;DHT22;2694;48.954;8.928;2023-03-26T02:21:57;5.60;99.90
5344;DHT22;2694;48.954;8.928;2023-03-26T02:24:25;5.60;99.90
5344;DHT22;2694;48.954;8.928;2023-03-26T02:26:52;5.60;99.90
5344;DHT22;2694;48.954;8.928;2023-03-26T02:29:20;5.60;99.90
5344;DHT22;2694;48.954;8.928;2023-03-26T02:31:48;5.60;99.90
5344;DHT22;2694;48.954;8.928;2023-03-26T02:34:15;5.70;99.90
5344;DHT22;2694;48.954;8.928;2023-03-26T02:36:42;6.00;99.90
5344;DHT22;2694;48.954;8.928;2023-03-26T02:39:10;5.70;99.90
5344;DHT22;2694;48.954;8.928;2023-03-26T02:41:39;5.70;99.90
5344;DHT22;2694;48.954;8.928;2023-03-26T02:44:06;5.70;99.90
5344;DHT22;2694;48.954;8.928;2023-03-26T02:46:34;5.70;99.90
5344;DHT22;2694;48.954;8.928;2023-03-26T02:49:01;5.80;99.90
5344;DHT22;2694;48.954;8.928;2023-03-26T02:51:28;5.90;99.90
5344;DHT22;2694;48.954;8.928;2023-03-26T02:53:59;5.60;99.90
5344;DHT22;2694;48.954;8.928;2023-03-26T02:56:26;5.70;99.90
5344;DHT22;2694;48.954;8.928;2023-03-26T02:58:53;5.60;99.90
5344;DHT22;2694;48.954;8.928;2023-03-26T03:01:20;5.70;99.90
5344;DHT22;2694;48.954;8.928;2023-03-26T03:03:48;5.80;99.90
5344;DHT22;2694;48.954;8.928;2023-03-26T03:06:16;5.80;99.90
5344;DHT22;2694;48.954;8.928;2023-03-26T03:08:44;5.70;99.90
5344;DHT22;2694;48.954;8.928;2023-03-26T03:11:13;5.60;99.90
5344;DHT22;2694;48.954;8.928;2023-03-26T03:13:40;5.50;99.90
5344;DHT22;2694;48.954;8.928;2023-03-26T03:16:08;5.60;99.90
5344;DHT22;2694;48.954;8.928;2023-03-26T03:18:35;5.60;99.90
5344;DHT22;2694;48.954;8.928;2023-03-26T03:21:04;5.50;99.90
5344;DHT22;2694;48.954;8.928;2023-03-26T03:23:31;5.50;99.90
5344;DHT22;2694;48.954;8.928;2023-03-26T03:25:58;5.50;99.90
5344;DHT22;2694;48.954;8.928;2023-03-26T03:28:27;5.50;99.90
5344;DHT22;2694;48.954;8.928;2023-03-26T03:30:55;5.40;99.90
5344;DHT22;2694;48.954;8.928;2023-03-26T03:33:23;5.40;99.90
5344;DHT22;2694;48.954;8.928;2023-03-26T03:35:50;5.40;99.90
5344;DHT22;2694;48.954;8.928;2023-03-26T03:38:18;5.30;99.90
5344;DHT22;2694;48.954;8.928;2023-03-26T03:40:45;5.30;99.90
5344;DHT22;2694;48.954;8.928;2023-03-26T03:43:12;5.60;99.90
5344;DHT22;2694;48.954;8.928;2023-03-26T03:45:39;5.50;99.90
5344;DHT22;2694;48.954;8.928;2023-03-26T03:48:06;5.40;99.90
5344;DHT22;2694;48.954;8.928;2023-03-26T03:50:33;5.50;99.90
5344;DHT22;2694;48.954;8.928;2023-03-26T03:53:00;5.50;99.90
5344;DHT22;2694;48.954;8.928;2023-03-26T03:55:28;5.40;99.90
5344;DHT22;2694;48.954;8.928;2023-03-26T03:57:55;5.50;99.90
5344;DHT22;2694;48.954;8.928;2023-03-26T04:00:23;5.60;99.90
5344;DHT22;2694;48.954;8.928;2023-03-26T04:02:50;5.70;99.90
5344;DHT22;2694;48.954;8.928;2023-03-26T04:05:18;5.80;99.90
5344;DHT22;2694;48.954;8.928;2023-03-26T04:07:46;5.80;99.90
5344;DHT22;2694;48.954;8.928;2023-03-26T04:10:14;5.90;99.90
5344;DHT22;2694;48.954;8.928;2023-03-26T04:12:48;5.90;99.90
5344;DHT22;2694;48.954;8.928;2023-03-26T04:15:15;5.90;99.90
5344;DHT22;2694;48.954;8.928;2023-03-26T04:17:42;5.90;99.90
5344;DHT22;2694;48.954;8.928;2023-03-26T04:20:10;6.00;99.90
5344;DHT22;2694;48.954;8.928;2023-03-26T04:22:40;6.00;99.90
5344;DHT22;2694;48.954;8.928;2023-03-26T04:25:08;5.90;99.90
5344;DHT22;2694;48.954;8.928;2023-03-26T04:27:35;6.00;99.90
5344;DHT22;2694;48.954;8.928;2023-03-26T04:30:06;6.00;99.90
5344;DHT22;2694;48.954;8.928;2023-03-26T04:32:34;6.00;99.90
5344;DHT22;2694;48.954;8.928;2023-03-26T04:35:04;6.00;99.90
5344;DHT22;2694;48.954;8.928;2023-03-26T04:37:33;5.90;99.90
5344;DHT22;2694;48.954;8.928;2023-03-26T04:40:06;5.90;99.90
5344;DHT22;2694;48.954;8.928;2023-03-26T04:42:34;5.80;99.90
5344;DHT22;2694;48.954;8.928;2023-03-26T04:45:04;5.80;99.90
5344;DHT22;2694;48.954;8.928;2023-03-26T04:47:31;2.80;99.90
5344;DHT22;2694;48.954;8.928;2023-03-26T04:50:02;5.80;99.90
5344;DHT22;2694;48.954;8.928;2023-03-26T04:52:29;5.80;99.90
5344;DHT22;2694;48.954;8.928;2023-03-26T04:54:57;5.90;99.90
5344;DHT22;2694;48.954;8.928;2023-03-26T04:57:27;7.10;99.90
5344;DHT22;2694;48.954;8.928;2023-03-26T04:59:57;5.90;99.90
5344;DHT22;2694;48.954;8.928;2023-03-26T05:02:25;6.00;99.90
5344;DHT22;2694;48.954;8.928;2023-03-26T05:04:53;6.00;99.90
5344;DHT22;2694;48.954;8.928;2023-03-26T05:07:21;6.00;99.90
5344;DHT22;2694;48.954;8.928;2023-03-26T05:09:49;6.10;99.90
5344;DHT22;2694;48.954;8.928;2023-03-26T05:12:16;6.10;99.90
5344;DHT22;2694;48.954;8.928;2023-03-26T05:14:43;6.00;99.90
5344;DHT22;2694;48.954;8.928;2023-03-26T05:17:13;6.00;99.90
5344;DHT22;2694;48.954;8.928;2023-03-26T05:19:44;6.00;99.90
5344;DHT22;2694;48.954;8.928;2023-03-26T05:22:12;5.90;99.90
5344;DHT22;2694;48.954;8.928;2023-03-26T05:24:39;6.10;99.90
5344;DHT22;2694;48.954;8.928;2023-03-26T05:27:06;6.00;99.90
5344;DHT22;2694;48.954;8.928;2023-03-26T05:29:33;6.20;99.90
5344;DHT22;2694;48.954;8.928;2023-03-26T05:32:00;6.20;99.90
5344;DHT22;2694;48.954;8.928;2023-03-26T05:34:27;6.30;99.90
5344;DHT22;2694;48.954;8.928;2023-03-26T05:36:55;6.10;99.90
5344;DHT22;2694;48.954;8.928;2023-03-26T05:39:22;6.10;99.90
5344;DHT22;2694;48.954;8.928;2023-03-26T05:41:51;6.10;99.90
5344;DHT22;2694;48.954;8.928;2023-03-26T05:44:18;6.00;99.90
5344;DHT22;2694;48.954;8.928;2023-03-26T05:46:45;6.20;99.90
5344;DHT22;2694;48.954;8.928;2023-03-26T05:49:12;6.20;99.90
5344;DHT22;2694;48.954;8.928;2023-03-26T05:51:39;6.20;99.90
5344;DHT22;2694;48.954;8.928;2023-03-26T05:54:07;6.30;99.90
5344;DHT22;2694;48.954;8.928;2023-03-26T05:56:34;6.20;99.90
5344;DHT22;2694;48.954;8.928;2023-03-26T05:59:01;6.30;99.90
5344;DHT22;2694;48.954;8.928;2023-03-26T06:01:28;6.50;99.90
5344;DHT22;2694;48.954;8.928;2023-03-26T06:03:54;6.50;99.90
5344;DHT22;2694;48.954;8.928;2023-03-26T06:06:21;6.50;99.90
5344;DHT22;2694;48.954;8.928;2023-03-26T06:08:50;6.50;99.90
5344;DHT22;2694;48.954;8.928;2023-03-26T06:11:20;6.50;99.90
5344;DHT22;2694;48.954;8.928;2023-03-26T06:13:47;6.70;99.90
5344;DHT22;2694;48.954;8.928;2023-03-26T06:16:14;6.70;99.90
5344;DHT22;2694;48.954;8.928;2023-03-26T06:18:42;6.80;99.90
5344;DHT22;2694;48.954;8.928;2023-03-26T06:21:08;6.80;99.90
5344;DHT22;2694;48.954;8.928;2023-03-26T06:23:35;6.90;99.90
5344;DHT22;2694;48.954;8.928;2023-03-26T06:26:02;7.10;99.90
5344;DHT22;2694;48.954;8.928;2023-03-26T06:28:31;7.20;99.90
5344;DHT22;2694;48.954;8.928;2023-03-26T06:30:59;7.20;99.90
5344;DHT22;2694;48.954;8.928;2023-03-26T06:33:26;7.20;99.90
5344;DHT22;2694;48.954;8.928;2023-03-26T06:35:53;7.20;99.90
5344;DHT22;2694;48.954;8.928;2023-03-26T06:38:20;7.20;99.90
5344;DHT22;2694;48.954;8.928;2023-03-26T06:40:47;7.30;99.90
5344;DHT22;2694;48.954;8.928;2023-03-26T06:43:14;7.40;99.90
5344;DHT22;2694;48.954;8.928;2023-03-26T06:45:42;7.50;99.90
5344;DHT22;2694;48.954;8.928;2023-03-26T06:48:09;7.60;99.90
5344;DHT22;2694;48.954;8.928;2023-03-26T06:50:36;7.50;99.90
5344;DHT22;2694;48.954;8.928;2023-03-26T06:53:03;7.40;99.90
5344;DHT22;2694;48.954;8.928;2023-03-26T06:55:30;7.40;99.90
5344;DHT22;2694;48.954;8.928;2023-03-26T06:57:57;7.40;99.90
5344;DHT22;2694;48.954;8.928;2023-03-26T07:00:24;7.40;99.90
5344;DHT22;2694;48.954;8.928;2023-03-26T07:02:52;7.40;99.90
5344;DHT22;2694;48.954;8.928;2023-03-26T07:05:19;7.50;99.90
5344;DHT22;2694;48.954;8.928;2023-03-26T07:07:46;7.50;99.90
5344;DHT22;2694;48.954;8.928;2023-03-26T07:10:13;7.50;99.90
5344;DHT22;2694;48.954;8.928;2023-03-26T07:12:41;7.60;99.90
5344;DHT22;2694;48.954;8.928;2023-03-26T07:15:08;7.50;99.90
5344;DHT22;2694;48.954;8.928;2023-03-26T07:17:36;7.60;99.90
5344;DHT22;2694;48.954;8.928;2023-03-26T07:20:05;7.70;99.90
5344;DHT22;2694;48.954;8.928;2023-03-26T07:22:33;7.70;99.90
5344;DHT22;2694;48.954;8.928;2023-03-26T07:25:01;7.80;99.90
5344;DHT22;2694;48.954;8.928;2023-03-26T07:27:36;7.80;99.90
5344;DHT22;2694;48.954;8.928;2023-03-26T07:30:08;7.90;99.90
5344;DHT22;2694;48.954;8.928;2023-03-26T07:32:44;7.80;99.90
5344;DHT22;2694;48.954;8.928;2023-03-26T07:35:19;7.80;99.90
5344;DHT22;2694;48.954;8.928;2023-03-26T07:37:55;7.80;99.90
5344;DHT22;2694;48.954;8.928;2023-03-26T07:40:42;7.80;99.90
5344;DHT22;2694;48.954;8.928;2023-03-26T07:43:21;7.80;99.90
5344;DHT22;2694;48.954;8.928;2023-03-26T07:45:53;7.70;99.90
5344;DHT22;2694;48.954;8.928;2023-03-26T07:48:21;7.70;99.90
5344;DHT22;2694;48.954;8.928;2023-03-26T07:50:52;7.70;99.90
5344;DHT22;2694;48.954;8.928;2023-03-26T07:53:20;7.70;99.90
5344;DHT22;2694;48.954;8.928;2023-03-26T07:55:52;7.80;99.90
5344;DHT22;2694;48.954;8.928;2023-03-26T07:58:35;7.80;99.90
5344;DHT22;2694;48.954;8.928;2023-03-26T08:01:07;7.70;99.90
5344;DHT22;2694;48.954;8.928;2023-03-26T08:03:50;7.50;99.90
5344;DHT22;2694;48.954;8.928;2023-03-26T08:06:26;7.50;99.90
5344;DHT22;2694;48.954;8.928;2023-03-26T08:09:01;7.60;99.90
5344;DHT22;2694;48.954;8.928;2023-03-26T08:11:33;7.60;99.90
5344;DHT22;2694;48.954;8.928;2023-03-26T08:14:14;7.60;99.90
5344;DHT22;2694;48.954;8.928;2023-03-26T08:16:48;7.50;99.90
5344;DHT22;2694;48.954;8.928;2023-03-26T08:19:37;7.50;99.90
5344;DHT22;2694;48.954;8.928;2023-03-26T08:22:14;7.50;99.90
5344;DHT22;2694;48.954;8.928;2023-03-26T08:27:53;7.50;99.90
5344;DHT22;2694;48.954;8.928;2023-03-26T08:30:25;7.40;99.90
5344;DHT22;2694;48.954;8.928;2023-03-26T08:32:55;7.40;99.90
5344;DHT22;2694;48.954;8.928;2023-03-26T08:35:22;7.40;99.90
5344;DHT22;2694;48.954;8.928;2023-03-26T08:37:50;7.50;99.90
5344;DHT22;2694;48.954;8.928;2023-03-26T08:40:34;7.50;99.90
5344;DHT22;2694;48.954;8.928;2023-03-26T08:43:20;7.50;99.90
5344;DHT22;2694;48.954;8.928;2023-03-26T08:49:12;7.60;99.90
5344;DHT22;2694;48.954;8.928;2023-03-26T08:52:16;7.70;99.90
5344;DHT22;2694;48.954;8.928;2023-03-26T09:01:30;7.80;99.90
5344;DHT22;2694;48.954;8.928;2023-03-26T09:07:33;7.60;99.90
5344;DHT22;2694;48.954;8.928;2023-03-26T09:10:24;7.70;99.90
5344;DHT22;2694;48.954;8.928;2023-03-26T09:13:19;7.90;99.90
5344;DHT22;2694;48.954;8.928;2023-03-26T09:21:57;9.00;99.90
5344;DHT22;2694;48.954;8.928;2023-03-26T09:27:38;9.80;99.90
5344;DHT22;2694;48.954;8.928;2023-03-26T09:30:32;10.00;99.90
5344;DHT22;2694;48.954;8.928;2023-03-26T09:36:24;10.00;99.90
5344;DHT22;2694;48.954;8.928;2023-03-26T09:39:02;10.60;99.90
5344;DHT22;2694;48.954;8.928;2023-03-26T09:41:41;10.90;99.90
5344;DHT22;2694;48.954;8.928;2023-03-26T09:47:40;10.80;99.90
5344;DHT22;2694;48.954;8.928;2023-03-26T09:53:19;10.60;99.90
5344;DHT22;2694;48.954;8.928;2023-03-26T09:55:59;10.70;99.90
5344;DHT22;2694;48.954;8.928;2023-03-26T10:01:58;10.70;99.90
5344;DHT22;2694;48.954;8.928;2023-03-26T10:04:51;10.80;99.90
5344;DHT22;2694;48.954;8.928;2023-03-26T10:07:40;11.00;99.90
5344;DHT22;2694;48.954;8.928;2023-03-26T10:10:15;11.10;99.90
5344;DHT22;2694;48.954;8.928;2023-03-26T10:12:45;11.10;99.90
5344;DHT22;2694;48.954;8.928;2023-03-26T10:15:24;11.10;99.90
5344;DHT22;2694;48.954;8.928;2023-03-26T10:18:03;11.00;99.90
5344;DHT22;2694;48.954;8.928;2023-03-26T10:20:52;11.00;99.90
5344;DHT22;2694;48.954;8.928;2023-03-26T10:27:01;11.60;99.90
5344;DHT22;2694;48.954;8.928;2023-03-26T10:32:29;11.60;99.90
5344;DHT22;2694;48.954;8.928;2023-03-26T10:35:05;11.50;99.90
5344;DHT22;2694;48.954;8.928;2023-03-26T10:37:45;11.40;99.90
5344;DHT22;2694;48.954;8.928;2023-03-26T10:40:20;11.40;99.90
5344;DHT22;2694;48.954;8.928;2023-03-26T10:42:59;11.40;99.90
5344;DHT22;2694;48.954;8.928;2023-03-26T10:45:39;11.40;99.90
5344;DHT22;2694;48.954;8.928;2023-03-26T10:48:20;11.60;99.90
5344;DHT22;2694;48.954;8.928;2023-03-26T10:51:02;11.80;99.90
5344;DHT22;2694;48.954;8.928;2023-03-26T10:53:37;11.80;99.90
5344;DHT22;2694;48.954;8.928;2023-03-26T10:56:16;11.90;99.90
5344;DHT22;2694;48.954;8.928;2023-03-26T10:58:45;12.00;99.90
5344;DHT22;2694;48.954;8.928;2023-03-26T11:01:21;11.90;99.90
5344;DHT22;2694;48.954;8.928;2023-03-26T11:03:50;11.90;99.90
5344;DHT22;2694;48.954;8.928;2023-03-26T11:06:36;12.00;99.90
5344;DHT22;2694;48.954;8.928;2023-03-26T11:09:17;12.10;99.90
5344;DHT22;2694;48.954;8.928;2023-03-26T11:11:50;12.00;99.90
5344;DHT22;2694;48.954;8.928;2023-03-26T11:14:21;11.90;99.90
5344;DHT22;2694;48.954;8.928;2023-03-26T11:16:57;12.00;99.90
5344;DHT22;2694;48.954;8.928;2023-03-26T11:19:30;12.20;99.90
5344;DHT22;2694;48.954;8.928;2023-03-26T11:22:02;12.20;99.90
5344;DHT22;2694;48.954;8.928;2023-03-26T11:24:46;12.10;99.90
5344;DHT22;2694;48.954;8.928;2023-03-26T11:27:24;12.00;99.90
5344;DHT22;2694;48.954;8.928;2023-03-26T11:30:00;11.80;99.90
5344;DHT22;2694;48.954;8.928;2023-03-26T11:32:39;12.30;99.90
5344;DHT22;2694;48.954;8.928;2023-03-26T11:35:15;12.60;99.90
5344;DHT22;2694;48.954;8.928;2023-03-26T11:37:46;12.60;99.90
5344;DHT22;2694;48.954;8.928;2023-03-26T11:40:19;12.60;99.90
5344;DHT22;2694;48.954;8.928;2023-03-26T11:42:49;12.60;99.90
5344;DHT22;2694;48.954;8.928;2023-03-26T11:45:21;12.80;99.90
5344;DHT22;2694;48.954;8.928;2023-03-26T11:47:52;12.90;99.90
5344;DHT22;2694;48.954;8.928;2023-03-26T11:50:25;13.00;99.90
5344;DHT22;2694;48.954;8.928;2023-03-26T11:52:53;12.90;99.90
5344;DHT22;2694;48.954;8.928;2023-03-26T11:55:24;12.80;99.90
5344;DHT22;2694;48.954;8.928;2023-03-26T11:57:54;12.60;99.90
5344;DHT22;2694;48.954;8.928;2023-03-26T12:00:23;12.60;99.90
5344;DHT22;2694;48.954;8.928;2023-03-26T12:02:55;13.10;99.90
5344;DHT22;2694;48.954;8.928;2023-03-26T12:05:24;13.50;99.90
5344;DHT22;2694;48.954;8.928;2023-03-26T12:07:55;13.70;99.90
5344;DHT22;2694;48.954;8.928;2023-03-26T12:10:27;13.80;99.90
5344;DHT22;2694;48.954;8.928;2023-03-26T12:12:57;13.80;99.90
5344;DHT22;2694;48.954;8.928;2023-03-26T12:15:25;13.80;99.90
5344;DHT22;2694;48.954;8.928;2023-03-26T12:17:55;13.80;99.90
5344;DHT22;2694;48.954;8.928;2023-03-26T12:20:34;13.60;99.90
5344;DHT22;2694;48.954;8.928;2023-03-26T12:23:04;13.70;99.90
5344;DHT22;2694;48.954;8.928;2023-03-26T12:25:35;13.70;99.90
5344;DHT22;2694;48.954;8.928;2023-03-26T12:28:04;13.60;99.90
5344;DHT22;2694;48.954;8.928;2023-03-26T12:30:50;13.60;99.90
5344;DHT22;2694;48.954;8.928;2023-03-26T12:33:23;13.60;99.90
5344;DHT22;2694;48.954;8.928;2023-03-26T12:35:51;13.60;99.90
5344;DHT22;2694;48.954;8.928;2023-03-26T12:38:23;13.60;99.90
5344;DHT22;2694;48.954;8.928;2023-03-26T12:41:05;13.50;99.90
5344;DHT22;2694;48.954;8.928;2023-03-26T12:43:38;13.60;99.90
5344;DHT22;2694;48.954;8.928;2023-03-26T12:46:21;13.60;99.90
5344;DHT22;2694;48.954;8.928;2023-03-26T12:48:50;13.80;99.90
5344;DHT22;2694;48.954;8.928;2023-03-26T12:51:26;13.90;99.90
5344;DHT22;2694;48.954;8.928;2023-03-26T12:54:18;14.00;98.30
5344;DHT22;2694;48.954;8.928;2023-03-26T12:56:59;14.20;96.50
5344;DHT22;2694;48.954;8.928;2023-03-26T12:59:38;14.10;96.80
5344;DHT22;2694;48.954;8.928;2023-03-26T13:02:28;14.00;97.50
5344;DHT22;2694;48.954;8.928;2023-03-26T13:05:07;13.90;97.70
5344;DHT22;2694;48.954;8.928;2023-03-26T13:07:56;13.80;97.30
5344;DHT22;2694;48.954;8.928;2023-03-26T13:16:26;12.90;99.90
5344;DHT22;2694;48.954;8.928;2023-03-26T13:18:59;12.20;99.90
5344;DHT22;2694;48.954;8.928;2023-03-26T13:21:37;11.50;99.90
5344;DHT22;2694;48.954;8.928;2023-03-26T13:24:24;11.30;99.90
5344;DHT22;2694;48.954;8.928;2023-03-26T13:27:07;11.60;99.90
5344;DHT22;2694;48.954;8.928;2023-03-26T13:29:45;11.80;99.90
5344;DHT22;2694;48.954;8.928;2023-03-26T13:32:26;12.00;99.90
5344;DHT22;2694;48.954;8.928;2023-03-26T13:35:09;12.00;99.90
5344;DHT22;2694;48.954;8.928;2023-03-26T13:37:43;12.20;99.90
5344;DHT22;2694;48.954;8.928;2023-03-26T13:40:22;12.30;99.90
5344;DHT22;2694;48.954;8.928;2023-03-26T13:43:06;12.40;99.90
5344;DHT22;2694;48.954;8.928;2023-03-26T13:45:48;12.50;99.90
5344;DHT22;2694;48.954;8.928;2023-03-26T13:48:20;12.80;99.90
5344;DHT22;2694;48.954;8.928;2023-03-26T13:50:56;12.90;99.90
5344;DHT22;2694;48.954;8.928;2023-03-26T13:53:27;13.20;99.90
5344;DHT22;2694;48.954;8.928;2023-03-26T13:55:58;13.10;99.90
5344;DHT22;2694;48.954;8.928;2023-03-26T13:58:31;12.80;99.90
5344;DHT22;2694;48.954;8.928;2023-03-26T14:01:04;12.60;99.90
5344;DHT22;2694;48.954;8.928;2023-03-26T14:03:40;12.60;99.90
5344;DHT22;2694;48.954;8.928;2023-03-26T14:06:13;12.70;99.90
5344;DHT22;2694;48.954;8.928;2023-03-26T14:08:46;12.80;99.90
5344;DHT22;2694;48.954;8.928;2023-03-26T14:11:21;12.80;99.90
5344;DHT22;2694;48.954;8.928;2023-03-26T14:13:55;12.70;99.90
5344;DHT22;2694;48.954;8.928;2023-03-26T14:16:30;12.70;99.90
5344;DHT22;2694;48.954;8.928;2023-03-26T14:19:07;12.60;99.90
5344;DHT22;2694;48.954;8.928;2023-03-26T14:21:57;12.60;99.90
5344;DHT22;2694;48.954;8.928;2023-03-26T14:24:44;12.40;99.90
5344;DHT22;2694;48.954;8.928;2023-03-26T14:27:23;12.50;99.90
5344;DHT22;2694;48.954;8.928;2023-03-26T14:30:12;12.50;99.90
5344;DHT22;2694;48.954;8.928;2023-03-26T14:32:51;12.40;99.90
5344;DHT22;2694;48.954;8.928;2023-03-26T14:35:32;12.30;99.90
5344;DHT22;2694;48.954;8.928;2023-03-26T14:41:10;12.10;99.90
5344;DHT22;2694;48.954;8.928;2023-03-26T14:43:56;12.00;99.90
5344;DHT22;2694;48.954;8.928;2023-03-26T14:46:39;11.40;99.90
5344;DHT22;2694;48.954;8.928;2023-03-26T14:49:49;10.20;99.90
5344;DHT22;2694;48.954;8.928;2023-03-26T14:52:24;9.40;99.90
5344;DHT22;2694;48.954;8.928;2023-03-26T14:55:00;8.90;99.90
5344;DHT22;2694;48.954;8.928;2023-03-26T14:57:52;8.60;99.90
5344;DHT22;2694;48.954;8.928;2023-03-26T15:01:00;8.40;99.90
5344;DHT22;2694;48.954;8.928;2023-03-26T15:13:10;7.90;99.90
5344;DHT22;2694;48.954;8.928;2023-03-26T15:16:07;8.00;99.90
5344;DHT22;2694;48.954;8.928;2023-03-26T15:31:28;8.00;99.90
5344;DHT22;2694;48.954;8.928;2023-03-26T15:34:24;7.80;99.90
5344;DHT22;2694;48.954;8.928;2023-03-26T15:37:18;7.80;99.90
5344;DHT22;2694;48.954;8.928;2023-03-26T15:40:06;7.70;99.90
5344;DHT22;2694;48.954;8.928;2023-03-26T15:42:42;7.80;99.90
5344;DHT22;2694;48.954;8.928;2023-03-26T15:45:25;7.80;99.90
5344;DHT22;2694;48.954;8.928;2023-03-26T15:51:00;7.90;99.90
5344;DHT22;2694;48.954;8.928;2023-03-26T15:53:35;7.80;99.90
5344;DHT22;2694;48.954;8.928;2023-03-26T15:56:27;7.70;99.90
5344;DHT22;2694;48.954;8.928;2023-03-26T15:59:02;7.70;99.90
5344;DHT22;2694;48.954;8.928;2023-03-26T16:01:41;7.70;99.90
5344;DHT22;2694;48.954;8.928;2023-03-26T16:04:23;7.80;99.90
5344;DHT22;2694;48.954;8.928;2023-03-26T16:06:58;7.90;99.90
5344;DHT22;2694;48.954;8.928;2023-03-26T16:09:55;7.90;99.90
5344;DHT22;2694;48.954;8.928;2023-03-26T16:12:32;8.10;99.90
5344;DHT22;2694;48.954;8.928;2023-03-26T16:15:26;8.10;99.90
5344;DHT22;2694;48.954;8.928;2023-03-26T16:18:23;8.10;99.90
5344;DHT22;2694;48.954;8.928;2023-03-26T16:20:54;8.20;99.90
5344;DHT22;2694;48.954;8.928;2023-03-26T16:23:32;8.20;99.90
5344;DHT22;2694;48.954;8.928;2023-03-26T16:26:14;8.20;99.90
5344;DHT22;2694;48.954;8.928;2023-03-26T16:29:15;8.10;99.90
5344;DHT22;2694;48.954;8.928;2023-03-26T16:32:12;8.10;99.90
5344;DHT22;2694;48.954;8.928;2023-03-26T16:34:46;8.10;99.90
5344;DHT22;2694;48.954;8.928;2023-03-26T16:37:39;8.00;99.90
5344;DHT22;2694;48.954;8.928;2023-03-26T16:40:53;6.20;99.90
5344;DHT22;2694;48.954;8.928;2023-03-26T16:43:54;8.00;99.90
5344;DHT22;2694;48.954;8.928;2023-03-26T16:46:30;8.00;99.90
5344;DHT22;2694;48.954;8.928;2023-03-26T16:49:06;7.90;99.90
5344;DHT22;2694;48.954;8.928;2023-03-26T16:51:52;7.90;99.90
5344;DHT22;2694;48.954;8.928;2023-03-26T16:54:26;7.80;99.90
5344;DHT22;2694;48.954;8.928;2023-03-26T16:56:59;7.80;99.90
5344;DHT22;2694;48.954;8.928;2023-03-26T16:59:55;7.80;99.90
5344;DHT22;2694;48.954;8.928;2023-03-26T17:02:27;7.80;99.90
5344;DHT22;2694;48.954;8.928;2023-03-26T17:05:05;7.80;99.90
5344;DHT22;2694;48.954;8.928;2023-03-26T17:07:36;7.80;99.90
5344;DHT22;2694;48.954;8.928;2023-03-26T17:10:13;7.80;99.90
5344;DHT22;2694;48.954;8.928;2023-03-26T17:12:46;7.80;99.90
5344;DHT22;2694;48.954;8.928;2023-03-26T17:15:23;7.80;99.90
5344;DHT22;2694;48.954;8.928;2023-03-26T17:18:12;7.80;99.90
5344;DHT22;2694;48.954;8.928;2023-03-26T17:20:50;7.80;99.90
5344;DHT22;2694;48.954;8.928;2023-03-26T17:23:29;7.80;99.90
5344;DHT22;2694;48.954;8.928;2023-03-26T17:26:04;7.90;99.90
5344;DHT22;2694;48.954;8.928;2023-03-26T17:28:57;7.90;99.90
5344;DHT22;2694;48.954;8.928;2023-03-26T17:31:34;7.90;99.90
5344;DHT22;2694;48.954;8.928;2023-03-26T17:37:29;7.90;99.90
5344;DHT22;2694;48.954;8.928;2023-03-26T17:43:06;7.80;99.90
5344;DHT22;2694;48.954;8.928;2023-03-26T17:45:35;7.90;99.90
5344;DHT22;2694;48.954;8.928;2023-03-26T17:48:09;7.80;99.90
5344;DHT22;2694;48.954;8.928;2023-03-26T17:50:47;7.90;99.90
5344;DHT22;2694;48.954;8.928;2023-03-26T17:53:19;7.90;99.90
5344;DHT22;2694;48.954;8.928;2023-03-26T17:55:51;7.90;99.90
5344;DHT22;2694;48.954;8.928;2023-03-26T17:58:23;7.80;99.90
5344;DHT22;2694;48.954;8.928;2023-03-26T18:01:01;7.70;99.90
5344;DHT22;2694;48.954;8.928;2023-03-26T18:03:32;7.70;99.90
5344;DHT22;2694;48.954;8.928;2023-03-26T18:06:06;7.60;99.90
5344;DHT22;2694;48.954;8.928;2023-03-26T18:08:40;7.60;99.90
5344;DHT22;2694;48.954;8.928;2023-03-26T18:11:26;7.50;99.90
5344;DHT22;2694;48.954;8.928;2023-03-26T18:14:19;7.50;99.90
5344;DHT22;2694;48.954;8.928;2023-03-26T18:16:49;7.40;99.90
5344;DHT22;2694;48.954;8.928;2023-03-26T18:19:18;7.40;99.90
5344;DHT22;2694;48.954;8.928;2023-03-26T18:21:49;7.40;99.90